Time;durP1;ratioP1;P1;durP2;ratioP2;P2;SDS_P1;SDS_P2;PMS_P1;PMS_P2;Temp;Humidity;BMP_temperature;BMP_pressure;BME280_temperature;BME280_humidity;BME280_pressure;Samples;Min_cycle;Max_cycle;Signal;HPM_P1;HPM_P2
2022/04/13 00:02:27;;;;;;;;;;;;;;;24.95;53.36;97233.83;626899;226;65286;-67
2022/04/13 00:04:54;;;;;;;;;;;;;;;24.92;53.07;97231.72;626852;226;64935;-67
2022/04/13 00:07:23;;;;;;;;;;;;;;;24.91;53.39;97232.83;626939;226;67098;-67
2022/04/13 00:09:51;;;;;;;;;;;;;;;24.91;53.91;97234.69;626853;226;63140;-67
2022/04/13 00:12:18;;;;;;;;;;;;;;;24.91;52.75;97232.83;626872;226;67232;-67
2022/04/13 00:14:47;;;;;;;;;;;;;;;24.90;53.01;97228.52;626853;226;64664;-67
2022/04/13 00:17:14;;;;;;;;;;;;;;;24.90;54.28;97225.83;626895;226;65298;-67
2022/04/13 00:19:42;;;;;;;;;;;;;;;24.90;52.79;97231.20;626883;226;66890;-67
2022/04/13 00:22:09;;;;;;;;;;;;;;;24.89;53.51;97232.31;626895;226;66877;-67
2022/04/13 00:24:37;;;;;;;;;;;;;;;24.89;53.22;97229.63;626826;226;65322;-67
2022/04/13 00:27:04;;;;;;;;;;;;;;;24.85;54.48;97225.91;626871;226;67627;-67
2022/04/13 00:29:31;;;;;;;;;;;;;;;24.85;51.78;97225.11;626866;226;67744;-67
2022/04/13 00:31:59;;;;;;;;;;;;;;;24.86;52.50;97224.04;626922;226;65181;-67
2022/04/13 00:34:26;;;;;;;;;;;;;;;24.84;53.51;97218.94;626869;226;67058;-68
2022/04/13 00:36:57;;;;;;;;;;;;;;;24.83;54.10;97220.04;626871;226;67022;-67
2022/04/13 00:39:23;;;;;;;;;;;;;;;24.83;53.30;97221.91;626771;225;65701;-67
2022/04/13 00:42:00;;;;;;;;;;;;;;;24.81;52.59;97220.31;626861;226;67169;-67
2022/04/13 00:44:29;;;;;;;;;;;;;;;24.81;52.78;97220.31;626850;226;67097;-66
2022/04/13 00:46:57;;;;;;;;;;;;;;;24.80;54.02;97218.73;626946;226;65379;-66
2022/04/13 00:49:25;;;;;;;;;;;;;;;24.80;54.56;97215.25;626842;226;64713;-66
2022/04/13 00:51:53;;;;;;;;;;;;;;;24.80;54.56;97218.73;626893;226;67044;-66
2022/04/13 00:54:22;;;;;;;;;;;;;;;24.78;52.82;97214.73;626901;226;65288;-66
2022/04/13 00:56:49;;;;;;;;;;;;;;;24.79;53.08;97221.70;626891;226;67230;-66
2022/04/13 00:59:17;;;;;;;;;;;;;;;24.78;53.07;97220.91;626958;226;67269;-63
2022/04/13 01:01:49;;;;;;;;;;;;;;;24.77;53.71;97219.31;626909;226;63251;-63
2022/04/13 01:04:17;;;;;;;;;;;;;;;24.78;54.01;97222.80;626890;226;67227;-64
2022/04/13 01:06:45;;;;;;;;;;;;;;;24.76;53.08;97217.70;626950;226;66601;-64
2022/04/13 01:09:13;;;;;;;;;;;;;;;24.76;52.87;97222.28;626919;226;65311;-64
2022/04/13 01:11:41;;;;;;;;;;;;;;;24.76;53.73;97214.22;626945;226;66920;-64
2022/04/13 01:14:09;;;;;;;;;;;;;;;24.72;54.11;97224.76;626964;226;66870;-64
2022/04/13 01:16:39;;;;;;;;;;;;;;;24.73;53.78;97218.28;626902;226;65351;-64
2022/04/13 01:19:13;;;;;;;;;;;;;;;24.72;54.28;97214.01;626905;226;66929;-64
2022/04/13 01:21:47;;;;;;;;;;;;;;;24.72;53.49;97214.01;626876;225;67008;-64
2022/04/13 01:24:15;;;;;;;;;;;;;;;24.71;54.45;97214.28;626906;226;62647;-63
2022/04/13 01:26:42;;;;;;;;;;;;;;;24.70;53.69;97218.87;626963;226;64779;-63
2022/04/13 01:29:10;;;;;;;;;;;;;;;24.71;52.29;97211.59;626886;226;64828;-63
2022/04/13 01:31:39;;;;;;;;;;;;;;;24.69;53.94;97219.14;626924;226;65311;-63
2022/04/13 01:34:07;;;;;;;;;;;;;;;24.68;55.15;97220.24;626899;226;66924;-63
2022/04/13 01:36:35;;;;;;;;;;;;;;;24.66;54.45;97215.14;626888;226;67135;-63
2022/04/13 01:39:03;;;;;;;;;;;;;;;24.67;54.29;97224.03;626895;226;65139;-63
2022/04/13 01:41:31;;;;;;;;;;;;;;;24.66;54.35;97222.41;626841;226;67578;-63
2022/04/13 01:43:58;;;;;;;;;;;;;;;24.64;54.91;97220.03;626885;226;64661;-66
2022/04/13 01:46:26;;;;;;;;;;;;;;;24.62;54.52;97221.41;626892;226;63246;-66
2022/04/13 01:48:53;;;;;;;;;;;;;;;24.61;53.24;97225.16;626873;226;65128;-66
2022/04/13 01:51:20;;;;;;;;;;;;;;;24.62;54.04;97226.78;626919;226;64929;-66
2022/04/13 01:53:50;;;;;;;;;;;;;;;24.62;55.69;97227.58;626947;226;65339;-63
2022/04/13 01:56:17;;;;;;;;;;;;;;;24.59;54.86;97228.95;626711;226;67196;-63
2022/04/13 01:58:45;;;;;;;;;;;;;;;24.58;56.27;97227.36;626803;226;66999;-63
2022/04/13 02:01:13;;;;;;;;;;;;;;;24.58;54.05;97226.54;626887;226;65518;-63
2022/04/13 02:03:40;;;;;;;;;;;;;;;24.56;55.94;97226.84;626886;226;67273;-63
2022/04/13 02:06:08;;;;;;;;;;;;;;;24.55;55.70;97229.81;626917;226;66974;-63
2022/04/13 02:08:35;;;;;;;;;;;;;;;24.54;56.25;97230.91;626897;226;65492;-63
2022/04/13 02:11:04;;;;;;;;;;;;;;;24.57;55.06;97233.02;626842;226;64979;-63
2022/04/13 02:13:31;;;;;;;;;;;;;;;24.54;54.68;97230.91;626920;226;64989;-63
2022/04/13 02:15:59;;;;;;;;;;;;;;;24.53;55.73;97227.42;626889;226;63180;-63
2022/04/13 02:18:26;;;;;;;;;;;;;;;24.52;54.77;97233.87;626901;226;64955;-63
2022/04/13 02:20:54;;;;;;;;;;;;;;;24.52;55.85;97238.45;626844;226;64716;-63
2022/04/13 02:23:21;;;;;;;;;;;;;;;24.50;55.22;97236.07;626850;226;63925;-66
2022/04/13 02:25:50;;;;;;;;;;;;;;;24.49;55.88;97223.70;626900;226;67278;-66
2022/04/13 02:28:17;;;;;;;;;;;;;;;24.49;55.62;97226.39;626860;226;67305;-66
2022/04/13 02:30:45;;;;;;;;;;;;;;;24.47;55.42;97230.45;626934;226;65250;-66
2022/04/13 02:33:13;;;;;;;;;;;;;;;24.47;55.85;97223.22;626881;226;65132;-66
2022/04/13 02:35:41;;;;;;;;;;;;;;;24.46;55.28;97226.17;626899;226;67162;-66
2022/04/13 02:38:09;;;;;;;;;;;;;;;24.47;55.26;97219.70;626865;226;65288;-66
2022/04/13 02:40:37;;;;;;;;;;;;;;;24.44;55.60;97226.45;626831;226;67225;-66
2022/04/13 02:43:04;;;;;;;;;;;;;;;24.44;54.95;97225.66;626936;226;64777;-66
2022/04/13 02:45:32;;;;;;;;;;;;;;;24.43;56.73;97224.83;622943;226;63292;-66
2022/04/13 02:47:59;;;;;;;;;;;;;;;24.43;56.10;97230.20;626873;226;64775;-66
2022/04/13 02:50:27;;;;;;;;;;;;;;;24.42;55.90;97228.62;626846;226;66900;-66
2022/04/13 02:52:56;;;;;;;;;;;;;;;24.41;56.57;97232.38;626851;226;65382;-66
2022/04/13 02:55:24;;;;;;;;;;;;;;;24.40;55.60;97227.30;626876;226;67461;-66
2022/04/13 02:57:51;;;;;;;;;;;;;;;24.40;56.09;97229.99;626921;226;67047;-66
2022/04/13 03:00:19;;;;;;;;;;;;;;;24.38;56.12;97228.38;626878;226;65234;-66
2022/04/13 03:02:46;;;;;;;;;;;;;;;24.38;55.56;97232.95;626879;226;67222;-66
2022/04/13 03:05:14;;;;;;;;;;;;;;;24.37;55.21;97231.36;626849;226;67103;-66
2022/04/13 03:07:41;;;;;;;;;;;;;;;24.36;55.99;97240.49;626865;226;65300;-66
2022/04/13 03:10:09;;;;;;;;;;;;;;;24.36;55.74;97240.49;626944;226;67234;-66
2022/04/13 03:12:36;;;;;;;;;;;;;;;24.36;56.12;97237.80;626883;226;67840;-66
2022/04/13 03:15:09;;;;;;;;;;;;;;;24.33;55.82;97233.80;626880;226;65281;-66
2022/04/13 03:17:34;;;;;;;;;;;;;;;24.34;55.38;97242.69;626647;225;67411;-66
2022/04/13 03:20:02;;;;;;;;;;;;;;;24.32;55.46;97242.16;626878;226;66909;-66
2022/04/13 03:22:30;;;;;;;;;;;;;;;24.32;55.30;97245.64;626925;226;62990;-66
2022/04/13 03:24:59;;;;;;;;;;;;;;;24.32;55.29;97250.22;626863;226;64837;-66
2022/04/13 03:27:26;;;;;;;;;;;;;;;24.31;55.61;97259.38;626866;226;67083;-66
2022/04/13 03:29:54;;;;;;;;;;;;;;;24.31;55.51;97264.75;626874;226;62990;-66
2022/04/13 03:32:22;;;;;;;;;;;;;;;24.30;55.72;97258.55;626851;226;65003;-66
2022/04/13 03:34:49;;;;;;;;;;;;;;;24.30;55.95;97265.81;626964;226;66680;-66
2022/04/13 03:37:18;;;;;;;;;;;;;;;24.28;55.13;97267.98;626882;226;65102;-67
2022/04/13 03:39:46;;;;;;;;;;;;;;;24.28;55.75;97276.04;626852;226;67380;-66
2022/04/13 03:42:13;;;;;;;;;;;;;;;24.27;55.74;97267.19;624644;226;65332;-66
2022/04/13 03:44:41;;;;;;;;;;;;;;;24.28;55.09;97270.67;624569;227;63172;-66
2022/04/13 03:47:08;;;;;;;;;;;;;;;24.26;55.89;97273.66;624610;227;64939;-66
2022/04/13 03:49:36;;;;;;;;;;;;;;;24.26;55.81;97280.92;624634;227;64906;-66
2022/04/13 03:52:03;;;;;;;;;;;;;;;24.26;56.31;97283.60;624582;227;63896;-63
2022/04/13 03:54:31;;;;;;;;;;;;;;;24.25;55.77;97276.61;624570;227;67248;-63
2022/04/13 03:56:58;;;;;;;;;;;;;;;24.23;55.81;97278.81;624547;227;67158;-63
2022/04/13 03:59:26;;;;;;;;;;;;;;;24.22;55.25;97285.24;624653;227;63007;-63
2022/04/13 04:01:54;;;;;;;;;;;;;;;24.21;55.88;97280.97;624579;227;66966;-63
2022/04/13 04:04:21;;;;;;;;;;;;;;;24.21;55.28;97289.02;624607;227;67088;-63
2022/04/13 04:06:49;;;;;;;;;;;;;;;24.20;55.50;97290.09;624564;227;65199;-66
2022/04/13 04:09:16;;;;;;;;;;;;;;;24.19;55.88;97293.88;624592;227;65105;-67
2022/04/13 04:11:44;;;;;;;;;;;;;;;24.18;54.91;97301.14;624626;227;64853;-67
2022/04/13 04:14:11;;;;;;;;;;;;;;;24.18;55.01;97297.66;624627;227;65350;-65
2022/04/13 04:16:39;;;;;;;;;;;;;;;24.17;56.22;97296.03;624624;227;67261;-68
2022/04/13 04:19:06;;;;;;;;;;;;;;;24.15;55.92;97299.81;624613;227;67063;-68
2022/04/13 04:21:34;;;;;;;;;;;;;;;24.15;56.18;97296.34;624577;227;65113;-68
2022/04/13 04:24:04;;;;;;;;;;;;;;;24.15;55.98;97302.50;624654;227;65178;-68
2022/04/13 04:26:31;;;;;;;;;;;;;;;24.14;55.87;97305.45;624701;227;64791;-67
2022/04/13 04:28:59;;;;;;;;;;;;;;;24.14;56.40;97305.45;624597;227;63180;-67
2022/04/13 04:34:12;;;;;;;;;;;;;;;24.12;56.34;97311.13;624628;227;66849;-68
2022/04/13 04:36:40;;;;;;;;;;;;;;;24.11;56.15;97308.72;624604;227;63259;-67
2022/04/13 04:39:07;;;;;;;;;;;;;;;24.10;56.06;97315.98;624682;227;65125;-67
2022/04/13 04:41:35;;;;;;;;;;;;;;;24.11;56.09;97325.63;626231;226;64922;-67
2022/04/13 04:44:02;;;;;;;;;;;;;;;24.10;55.59;97328.61;626924;226;65300;-68
2022/04/13 04:46:30;;;;;;;;;;;;;;;24.09;56.59;97327.81;626901;226;67340;-67
2022/04/13 04:48:57;;;;;;;;;;;;;;;24.10;55.37;97331.29;626863;226;66800;-67
2022/04/13 04:51:25;;;;;;;;;;;;;;;24.10;55.47;97334.77;626853;226;65245;-67
2022/04/13 04:53:53;;;;;;;;;;;;;;;24.09;56.25;97332.36;626937;226;67145;-67
2022/04/13 04:56:20;;;;;;;;;;;;;;;24.08;55.84;97336.93;626899;226;65337;-68
2022/04/13 04:58:48;;;;;;;;;;;;;;;24.09;56.01;97343.09;626891;226;65428;-67
2022/04/13 05:01:15;;;;;;;;;;;;;;;24.08;56.30;97342.30;626904;226;67306;-67
2022/04/13 05:03:48;;;;;;;;;;;;;;;24.07;56.86;97346.08;626841;226;67082;-67
2022/04/13 05:06:12;;;;;;;;;;;;;;;24.07;56.47;97351.45;626763;225;63137;-67
2022/04/13 05:08:39;;;;;;;;;;;;;;;24.07;56.62;97350.66;626905;226;64945;-67
2022/04/13 05:11:07;;;;;;;;;;;;;;;24.07;56.02;97351.45;626939;226;66825;-67
2022/04/13 05:13:34;;;;;;;;;;;;;;;24.07;57.09;97356.82;626934;226;63289;-68
2022/04/13 05:16:02;;;;;;;;;;;;;;;24.07;56.38;97356.82;626922;226;64344;-67
2022/04/13 05:18:29;;;;;;;;;;;;;;;24.08;56.16;97354.93;626929;226;64699;-67
2022/04/13 05:20:57;;;;;;;;;;;;;;;24.07;56.25;97345.28;626890;226;63111;-67
2022/04/13 05:23:24;;;;;;;;;;;;;;;24.07;56.16;97350.66;626881;226;65119;-67
2022/04/13 05:25:52;;;;;;;;;;;;;;;24.07;56.38;97351.45;626897;226;66764;-67
2022/04/13 05:28:21;;;;;;;;;;;;;;;24.06;56.54;97344.48;626887;226;63125;-67
2022/04/13 05:30:48;;;;;;;;;;;;;;;24.07;57.07;97351.45;626946;226;64548;-67
2022/04/13 05:33:16;;;;;;;;;;;;;;;24.08;56.45;97353.04;626873;226;64688;-67
2022/04/13 05:35:45;;;;;;;;;;;;;;;24.08;56.30;97355.72;626876;226;64008;-67
2022/04/13 05:38:12;;;;;;;;;;;;;;;24.08;57.51;97363.78;626920;226;67201;-67
2022/04/13 05:40:40;;;;;;;;;;;;;;;24.08;56.07;97363.78;626848;226;67049;-67
2022/04/13 05:43:07;;;;;;;;;;;;;;;24.08;57.67;97357.61;626808;226;66190;-67
2022/04/13 05:45:35;;;;;;;;;;;;;;;24.08;56.65;97361.09;626271;226;67184;-66
2022/04/13 05:48:02;;;;;;;;;;;;;;;24.09;56.49;97359.20;623171;226;67802;-69
2022/04/13 05:50:30;;;;;;;;;;;;;;;24.08;57.17;97363.78;619643;229;65433;-70
2022/04/13 05:52:57;;;;;;;;;;;;;;;24.08;56.58;97361.09;619576;229;67235;-69
2022/04/13 05:55:25;;;;;;;;;;;;;;;24.08;56.04;97358.41;619611;229;64762;-70
2022/04/13 05:57:52;;;;;;;;;;;;;;;24.08;56.39;97358.41;619517;229;64812;-70
2022/04/13 06:00:20;;;;;;;;;;;;;;;24.09;55.79;97364.58;619598;229;67189;-69
2022/04/13 06:02:47;;;;;;;;;;;;;;;24.10;55.96;97363.51;619590;229;66769;-69
2022/04/13 06:05:15;;;;;;;;;;;;;;;24.10;55.83;97356.25;619708;229;63142;-70
2022/04/13 06:07:43;;;;;;;;;;;;;;;24.11;56.17;97357.84;619636;229;64931;-69
2022/04/13 06:10:11;;;;;;;;;;;;;;;24.12;56.76;97361.35;619685;229;67349;-70
2022/04/13 06:12:39;;;;;;;;;;;;;;;24.12;57.08;97354.09;619623;229;62958;-69
2022/04/13 06:15:08;;;;;;;;;;;;;;;24.13;55.96;97347.63;619626;229;64990;-68
2022/04/13 06:17:36;;;;;;;;;;;;;;;24.13;56.29;97347.63;619690;229;64883;-69
2022/04/13 06:20:05;;;;;;;;;;;;;;;24.15;57.07;97342.78;619697;229;65373;-69
2022/04/13 06:22:33;;;;;;;;;;;;;;;24.18;57.39;97352.16;619624;229;67213;-69
2022/04/13 06:25:02;;;;;;;;;;;;;;;24.18;55.91;97345.99;619691;229;66859;-73
2022/04/13 06:27:30;;;;;;;;;;;;;;;24.21;54.16;97340.05;619750;229;65261;-69
2022/04/13 06:29:58;;;;;;;;;;;;;;;24.25;55.56;97338.38;619614;229;64770;-69
2022/04/13 06:32:32;;;;;;;;;;;;;;;24.28;56.68;97337.81;619677;229;64950;-70
2022/04/13 06:35:00;;;;;;;;;;;;;;;24.30;55.80;97339.13;619661;229;65630;-70
2022/04/13 06:37:27;;;;;;;;;;;;;;;24.31;55.23;97334.58;619684;229;68562;-70
2022/04/13 06:39:55;;;;;;;;;;;;;;;24.34;55.58;97331.32;619559;229;67036;-69
2022/04/13 06:42:23;;;;;;;;;;;;;;;24.36;54.25;97339.88;614693;231;65215;-68
2022/04/13 06:44:52;;;;;;;;;;;;;;;24.40;53.90;97335.55;614652;228;65869;-68
2022/04/13 06:47:20;;;;;;;;;;;;;;;24.43;52.28;97337.66;613761;231;64804;-70
2022/04/13 06:49:47;;;;;;;;;;;;;;;24.45;52.67;97332.84;614665;231;64041;-68
2022/04/13 06:52:15;;;;;;;;;;;;;;;24.48;53.67;97339.53;608149;231;64983;-68
2022/04/13 06:54:43;;;;;;;;;;;;;;;24.48;53.80;97340.33;614641;231;64944;-69
2022/04/13 06:57:10;;;;;;;;;;;;;;;24.50;53.86;97340.84;614684;231;65132;-70
2022/04/13 06:59:38;;;;;;;;;;;;;;;24.52;53.62;97344.02;614684;231;67367;-69
2022/04/13 07:02:12;;;;;;;;;;;;;;;24.54;52.55;97352.61;608145;231;68473;-73
2022/04/13 07:04:40;;;;;;;;;;;;;;;24.56;53.63;97341.59;614614;231;62973;-73
2022/04/13 07:07:08;;;;;;;;;;;;;;;24.57;52.63;97343.97;614712;231;67076;-73
2022/04/13 07:09:35;;;;;;;;;;;;;;;24.58;53.13;97348.28;614630;231;65641;-73
2022/04/13 07:12:03;;;;;;;;;;;;;;;24.58;54.81;97340.22;614621;231;62914;-70
2022/04/13 07:14:31;;;;;;;;;;;;;;;24.59;54.18;97349.87;614664;231;64952;-70
2022/04/13 07:16:58;;;;;;;;;;;;;;;24.61;54.01;97354.14;614704;231;64490;-71
2022/04/13 07:19:25;;;;;;;;;;;;;;;24.62;53.34;97347.70;614587;231;63825;-75
2022/04/13 07:21:53;;;;;;;;;;;;;;;24.63;54.31;97351.98;614691;231;67071;-72
2022/04/13 07:24:20;;;;;;;;;;;;;;;24.64;53.51;97348.23;614681;231;65021;-74
2022/04/13 07:26:48;;;;;;;;;;;;;;;24.65;54.59;97353.30;614611;231;65478;-74
2022/04/13 07:29:15;;;;;;;;;;;;;;;24.65;53.55;97349.81;614751;228;64801;-71
2022/04/13 07:31:43;;;;;;;;;;;;;;;24.67;53.24;97353.02;614672;231;66875;-69
2022/04/13 07:34:10;;;;;;;;;;;;;;;24.68;53.60;97355.41;614614;231;65136;-69
2022/04/13 07:36:38;;;;;;;;;;;;;;;24.68;53.95;97346.55;614638;231;66991;-69
2022/04/13 07:39:05;;;;;;;;;;;;;;;24.69;53.38;97351.66;614675;231;67224;-67
2022/04/13 07:41:33;;;;;;;;;;;;;;;24.70;53.58;97350.55;616597;229;65340;-69
2022/04/13 07:44:01;;;;;;;;;;;;;;;24.71;54.72;97362.89;617468;230;66921;-69
2022/04/13 07:46:29;;;;;;;;;;;;;;;24.72;53.62;97358.34;617305;230;64788;-71
2022/04/13 07:48:56;;;;;;;;;;;;;;;24.73;53.23;97357.24;617282;230;66319;-68
2022/04/13 07:51:24;;;;;;;;;;;;;;;24.73;53.42;97349.18;617432;230;67296;-68
2022/04/13 07:53:51;;;;;;;;;;;;;;;24.74;53.48;97348.87;617437;230;67038;-72
2022/04/13 07:56:19;;;;;;;;;;;;;;;24.74;54.33;97361.52;617442;230;62999;-75
2022/04/13 07:58:46;;;;;;;;;;;;;;;24.74;53.96;97348.87;617372;230;66955;-74
2022/04/13 08:01:14;;;;;;;;;;;;;;;24.73;52.82;97349.98;617345;230;64805;-72
2022/04/13 08:03:42;;;;;;;;;;;;;;;24.73;54.22;97354.55;617413;230;65309;-67
2022/04/13 08:06:11;;;;;;;;;;;;;;;24.74;54.52;97351.56;617350;230;67355;-69
2022/04/13 08:08:40;;;;;;;;;;;;;;;24.75;54.25;97349.70;617325;230;64944;-69
2022/04/13 08:11:08;;;;;;;;;;;;;;;24.76;53.95;97345.91;617393;230;65540;-69
2022/04/13 08:13:35;;;;;;;;;;;;;;;24.77;54.31;97353.70;617387;230;67245;-67
2022/04/13 08:16:05;;;;;;;;;;;;;;;24.77;54.19;97348.33;617359;230;67071;-68
2022/04/13 08:18:33;;;;;;;;;;;;;;;24.78;54.16;97351.81;617437;230;65407;-67
2022/04/13 08:21:02;;;;;;;;;;;;;;;24.79;53.54;97354.19;617494;230;64762;-73
2022/04/13 08:23:29;;;;;;;;;;;;;;;24.77;53.11;97348.33;617375;230;66846;-71
2022/04/13 08:25:57;;;;;;;;;;;;;;;24.80;50.10;97352.33;617410;230;65438;-72
2022/04/13 08:28:25;;;;;;;;;;;;;;;24.86;50.51;97345.00;617426;230;67205;-73
2022/04/13 08:30:52;;;;;;;;;;;;;;;24.87;50.73;97344.70;617343;230;64505;-71
2022/04/13 08:33:20;;;;;;;;;;;;;;;24.89;51.25;97344.42;617481;230;62955;-68
2022/04/13 08:35:47;;;;;;;;;;;;;;;24.89;51.61;97350.59;617436;230;67053;-71
2022/04/13 08:38:15;;;;;;;;;;;;;;;24.91;52.33;97343.05;617329;227;65246;-64
2022/04/13 08:40:44;;;;;;;;;;;;;;;24.91;53.08;97348.42;616413;229;65294;-67
2022/04/13 08:43:11;;;;;;;;;;;;;;;24.91;53.20;97348.42;614718;231;64862;-65
2022/04/13 08:45:46;;;;;;;;;;;;;;;24.92;52.37;97350.02;614639;231;65027;-65
2022/04/13 08:48:17;;;;;;;;;;;;;;;24.91;51.02;97337.67;614279;231;65152;-67
2022/04/13 08:50:45;;;;;;;;;;;;;;;24.97;53.15;97336.51;614625;231;67377;-72
2022/04/13 08:53:14;;;;;;;;;;;;;;;24.98;54.09;97338.09;614654;231;65031;-69
2022/04/13 08:55:43;;;;;;;;;;;;;;;24.99;53.11;97326.27;614691;231;62668;-72
2022/04/13 08:58:12;;;;;;;;;;;;;;;25.01;53.70;97332.14;614464;231;64383;-76
2022/04/13 09:00:41;;;;;;;;;;;;;;;25.04;52.95;97320.00;614617;228;67028;-75
2022/04/13 09:03:25;;;;;;;;;;;;;;;25.06;52.61;97322.42;614639;231;65149;-72
2022/04/13 09:05:54;;;;;;;;;;;;;;;25.08;53.25;97320.25;614607;229;65118;-75
2022/04/13 09:08:23;;;;;;;;;;;;;;;25.09;52.59;97322.62;614734;231;66855;-74
2022/04/13 09:10:54;;;;;;;;;;;;;;;25.11;53.80;97316.97;614695;229;65525;-76
2022/04/13 09:13:24;;;;;;;;;;;;;;;25.12;52.68;97323.94;614633;231;65760;-74
2022/04/13 09:15:53;;;;;;;;;;;;;;;25.13;53.56;97312.11;614725;229;66882;-74
2022/04/13 09:18:20;;;;;;;;;;;;;;;25.15;53.09;97304.56;614688;231;65312;-76
2022/04/13 09:20:48;;;;;;;;;;;;;;;25.16;52.78;97293.52;614611;231;67232;-72
2022/04/13 09:23:16;;;;;;;;;;;;;;;25.17;53.07;97299.70;614754;228;64682;-75
2022/04/13 09:25:44;;;;;;;;;;;;;;;25.18;53.58;97299.42;614699;231;63018;-75
2022/04/13 09:28:11;;;;;;;;;;;;;;;25.18;52.67;97291.35;614717;231;64593;-73
2022/04/13 09:30:39;;;;;;;;;;;;;;;25.20;53.72;97296.42;614669;231;64249;-77
2022/04/13 09:33:07;;;;;;;;;;;;;;;25.22;53.40;97288.87;614732;231;65438;-73
2022/04/13 09:35:35;;;;;;;;;;;;;;;25.22;54.20;97286.97;614691;231;66714;-73
2022/04/13 09:38:03;;;;;;;;;;;;;;;25.24;53.22;97292.08;614662;231;64497;-74
2022/04/13 09:40:32;;;;;;;;;;;;;;;25.24;53.58;97281.31;615396;229;64364;-73
2022/04/13 09:43:10;;;;;;;;;;;;;;;25.24;53.72;97286.70;617364;230;64554;-75
2022/04/13 09:45:41;;;;;;;;;;;;;;;25.23;54.38;97290.45;617413;230;64537;-74
2022/04/13 09:48:09;;;;;;;;;;;;;;;25.24;54.87;97286.70;617068;229;63327;-74
2022/04/13 09:50:38;;;;;;;;;;;;;;;25.23;54.32;97279.70;617414;227;65087;-74
2022/04/13 09:53:06;;;;;;;;;;;;;;;25.24;54.33;97289.38;617408;227;68111;-72
2022/04/13 09:55:35;;;;;;;;;;;;;;;25.23;54.34;97280.48;617399;227;66248;-72
2022/04/13 09:58:07;;;;;;;;;;;;;;;25.24;53.55;97275.94;617404;230;65657;-72
2022/04/13 10:00:35;;;;;;;;;;;;;;;25.24;54.70;97276.73;617199;229;66857;-72
2022/04/13 10:03:13;;;;;;;;;;;;;;;25.25;53.80;97277.52;617344;230;65209;-71
2022/04/13 10:05:57;;;;;;;;;;;;;;;25.26;53.70;97273.73;617430;230;64842;-71
2022/04/13 10:08:26;;;;;;;;;;;;;;;25.26;53.30;97279.11;617472;230;64790;-71
2022/04/13 10:10:56;;;;;;;;;;;;;;;25.27;53.36;97277.25;617331;230;65395;-70
2022/04/13 10:13:40;;;;;;;;;;;;;;;25.27;54.26;97278.04;617436;230;64668;-70
2022/04/13 10:16:10;;;;;;;;;;;;;;;25.26;54.04;97273.73;617366;230;67066;-70
2022/04/13 10:18:56;;;;;;;;;;;;;;;25.27;54.17;97269.97;617025;229;65298;-72
2022/04/13 10:21:37;;;;;;;;;;;;;;;25.22;53.89;97270.84;617380;230;67522;-73
2022/04/13 10:24:05;;;;;;;;;;;;;;;25.21;53.72;97271.14;617193;230;66675;-70
2022/04/13 10:26:33;;;;;;;;;;;;;;;25.18;53.86;97266.33;617436;230;65532;-69
2022/04/13 10:29:00;;;;;;;;;;;;;;;25.17;53.74;97264.73;617399;230;67092;-70
2022/04/13 10:31:27;;;;;;;;;;;;;;;25.15;53.76;97262.33;617350;230;67816;-70
2022/04/13 10:33:56;;;;;;;;;;;;;;;25.13;53.29;97256.43;617388;230;65104;-70
2022/04/13 10:36:24;;;;;;;;;;;;;;;25.12;53.40;97256.71;617366;230;67024;-70
2022/04/13 10:38:51;;;;;;;;;;;;;;;25.11;51.90;97247.84;617384;230;67654;-70
2022/04/13 10:41:21;;;;;;;;;;;;;;;25.12;51.84;97251.33;617402;229;63102;-73
2022/04/13 10:43:50;;;;;;;;;;;;;;;25.12;51.88;97254.02;617422;230;67208;-66
2022/04/13 10:46:20;;;;;;;;;;;;;;;25.10;48.85;97248.95;617353;230;65109;-69
2022/04/13 10:48:49;;;;;;;;;;;;;;;25.12;50.15;97246.75;617366;230;63238;-69
2022/04/13 10:51:18;;;;;;;;;;;;;;;25.14;50.85;97254.53;617418;229;65016;-69
2022/04/13 10:53:47;;;;;;;;;;;;;;;25.15;50.60;97240.02;617349;229;64802;-68
2022/04/13 10:56:16;;;;;;;;;;;;;;;25.15;50.57;97240.02;617441;230;63060;-70
2022/04/13 10:58:54;;;;;;;;;;;;;;;25.15;50.28;97240.02;617363;230;67088;-69
2022/04/13 11:01:23;;;;;;;;;;;;;;;25.15;49.72;97245.39;617341;229;64544;-67
2022/04/13 11:03:52;;;;;;;;;;;;;;;25.15;50.50;97251.56;617455;230;65448;-68
2022/04/13 11:06:20;;;;;;;;;;;;;;;25.13;49.81;97251.05;617438;230;64714;-73
2022/04/13 11:08:50;;;;;;;;;;;;;;;25.13;50.51;97244.88;617320;230;65346;-76
2022/04/13 11:11:20;;;;;;;;;;;;;;;25.13;50.30;97242.19;617400;230;65354;-76
2022/04/13 11:13:51;;;;;;;;;;;;;;;25.12;51.00;97235.20;617408;230;65828;-72
2022/04/13 11:16:20;;;;;;;;;;;;;;;25.12;50.13;97229.81;617475;230;66978;-75
2022/04/13 11:19:04;;;;;;;;;;;;;;;25.12;49.75;97232.50;617207;229;65418;-75
2022/04/13 11:21:32;;;;;;;;;;;;;;;25.12;49.38;97229.81;617460;230;67301;-74
2022/04/13 11:24:00;;;;;;;;;;;;;;;25.12;49.84;97232.50;617441;230;64799;-74
2022/04/13 11:26:41;;;;;;;;;;;;;;;25.12;49.65;97224.44;617421;230;62950;-74
2022/04/13 11:29:12;;;;;;;;;;;;;;;25.12;50.56;97235.20;617334;228;64461;-75
2022/04/13 11:31:58;;;;;;;;;;;;;;;25.11;50.26;97228.23;617455;229;66927;-76
2022/04/13 11:34:29;;;;;;;;;;;;;;;25.11;50.02;97226.34;624219;227;64218;-76
2022/04/13 11:37:00;;;;;;;;;;;;;;;25.11;49.98;97228.23;624576;227;67633;-75
2022/04/13 11:39:45;;;;;;;;;;;;;;;25.11;50.59;97233.61;624597;227;64818;-81
2022/04/13 11:42:27;;;;;;;;;;;;;;;25.10;50.50;97230.12;626642;226;65585;-79
2022/04/13 11:45:05;;;;;;;;;;;;;;;25.08;51.58;97234.20;626785;226;64902;-77
2022/04/13 11:47:45;;;;;;;;;;;;;;;25.07;52.03;97232.58;626804;226;64850;-77
2022/04/13 11:50:14;;;;;;;;;;;;;;;25.05;50.79;97234.78;626540;225;66680;-76
2022/04/13 11:52:50;;;;;;;;;;;;;;;25.03;51.22;97227.79;626844;226;67002;-76
2022/04/13 11:55:21;;;;;;;;;;;;;;;25.02;52.19;97220.83;626660;225;67233;-77
2022/04/13 11:57:53;;;;;;;;;;;;;;;25.02;50.78;97212.76;626635;225;65247;-76
2022/04/13 12:00:37;;;;;;;;;;;;;;;25.02;51.03;97211.97;622208;226;64884;-77
2022/04/13 12:03:12;;;;;;;;;;;;;;;25.03;51.43;97216.24;619637;229;66910;-77
2022/04/13 12:05:41;;;;;;;;;;;;;;;25.02;51.34;97203.91;619664;229;63153;-74
2022/04/13 12:08:10;;;;;;;;;;;;;;;25.02;51.41;97204.70;619693;229;67141;-78
2022/04/13 12:10:38;;;;;;;;;;;;;;;25.01;51.39;97200.39;619620;229;64840;-73
2022/04/13 12:13:06;;;;;;;;;;;;;;;25.01;50.32;97205.77;619621;229;66328;-70
2022/04/13 12:15:43;;;;;;;;;;;;;;;25.00;51.58;97204.18;621828;226;67034;-70
2022/04/13 12:18:11;;;;;;;;;;;;;;;25.00;52.21;97206.08;619606;229;66860;-70
2022/04/13 12:20:39;;;;;;;;;;;;;;;24.98;52.01;97195.59;622517;226;62987;-70
2022/04/13 12:23:20;;;;;;;;;;;;;;;24.98;50.90;97200.98;619566;229;67056;-70
2022/04/13 12:25:49;;;;;;;;;;;;;;;24.97;52.02;97191.33;619422;229;67050;-70
2022/04/13 12:28:18;;;;;;;;;;;;;;;24.96;51.85;97195.12;620835;226;65308;-70
2022/04/13 12:30:47;;;;;;;;;;;;;;;24.96;51.47;97197.80;626051;226;67248;-70
2022/04/13 12:33:21;;;;;;;;;;;;;;;24.95;51.54;97198.88;626459;225;66668;-69
2022/04/13 12:35:49;;;;;;;;;;;;;;;24.95;50.82;97190.81;626671;225;66360;-69
2022/04/13 12:38:24;;;;;;;;;;;;;;;24.95;50.55;97203.46;626799;226;66997;-71
2022/04/13 12:41:11;;;;;;;;;;;;;;;24.98;49.81;97197.50;626714;226;64869;-70
2022/04/13 12:43:41;;;;;;;;;;;;;;;25.00;49.52;97196.11;626916;226;65083;-71
2022/04/13 12:46:13;;;;;;;;;;;;;;;25.01;49.28;97188.84;626769;226;64748;-71
2022/04/13 12:48:41;;;;;;;;;;;;;;;25.00;50.46;97184.56;626838;226;66842;-71
2022/04/13 12:51:11;;;;;;;;;;;;;;;24.98;50.65;97192.91;626759;226;65595;-72
2022/04/13 12:53:43;;;;;;;;;;;;;;;24.98;50.97;97186.74;626757;226;67245;-69
2022/04/13 12:56:13;;;;;;;;;;;;;;;24.97;49.96;97182.47;626781;226;64905;-71
2022/04/13 12:58:41;;;;;;;;;;;;;;;25.00;47.95;97179.19;626829;226;65313;-71
2022/04/13 13:01:10;;;;;;;;;;;;;;;25.02;49.49;97175.12;626712;226;67185;-68